Time;durP1;ratioP1;P1;durP2;ratioP2;P2;SDS_P1;SDS_P2;PMS_P1;PMS_P2;Temp;Humidity;BMP_temperature;BMP_pressure;BME280_temperature;BME280_humidity;BME280_pressure;Samples;Min_cycle;Max_cycle;Signal;HPM_P1;HPM_P2
2020/12/23 00:01:08;;;;;;;26.77;3.77;;;;;;;4.30;85.88;101104.75;5071227;28;20099;-69
2020/12/23 00:03:37;;;;;;;6.68;2.83;;;;;;;4.32;85.73;101110.75;5071351;28;20548;-67
2020/12/23 00:06:03;;;;;;;6.90;2.28;;;;;;;4.29;85.96;101114.47;5070740;28;20040;-67
2020/12/23 00:08:28;;;;;;;12.10;3.43;;;;;;;4.23;86.13;101101.69;5053439;28;20075;-67
2020/12/23 00:10:53;;;;;;;10.13;2.53;;;;;;;4.19;86.48;101106.38;5070076;28;20040;-67
2020/12/23 00:13:19;;;;;;;13.03;3.27;;;;;;;4.16;86.41;101111.88;5070050;28;20037;-67
2020/12/23 00:15:45;;;;;;;16.80;2.93;;;;;;;4.12;86.64;101099.00;5070936;28;20105;-67
2020/12/23 00:18:10;;;;;;;24.75;3.70;;;;;;;4.09;86.50;101110.63;5053335;28;20458;-67
2020/12/23 00:20:36;;;;;;;15.23;3.87;;;;;;;4.07;86.82;101101.97;5070963;28;20024;-67
2020/12/23 00:23:01;;;;;;;21.00;4.17;;;;;;;4.01;86.73;101103.28;5071091;28;20032;-67
2020/12/23 00:25:26;;;;;;;18.73;3.87;;;;;;;3.96;86.85;101109.84;5069827;28;20044;-67
2020/12/23 00:27:52;;;;;;;27.83;4.23;;;;;;;3.91;87.11;101101.38;5069875;28;20063;-67
2020/12/23 00:30:19;;;;;;;15.07;3.73;;;;;;;3.87;87.03;101111.34;5070867;28;20051;-67
2020/12/23 00:32:45;;;;;;;12.82;3.53;;;;;;;3.81;87.19;101103.84;5070762;28;20040;-67
2020/12/23 00:35:10;;;;;;;13.37;2.60;;;;;;;3.79;87.51;101098.69;5070692;28;20042;-67
2020/12/23 00:37:35;;;;;;;17.77;4.30;;;;;;;3.80;87.84;101103.03;5052972;28;20446;-67
2020/12/23 00:40:01;;;;;;;7.90;2.57;;;;;;;3.80;88.02;101105.66;5070791;28;20032;-67
2020/12/23 00:42:26;;;;;;;15.50;3.90;;;;;;;3.79;87.97;101098.69;5069870;28;20046;-67
2020/12/23 00:44:51;;;;;;;20.23;4.63;;;;;;;3.80;87.93;101104.81;5055143;28;20124;-67
2020/12/23 00:47:17;;;;;;;16.13;3.97;;;;;;;3.76;88.11;101093.63;5073383;28;20190;-67
2020/12/23 00:49:42;;;;;;;13.47;2.80;;;;;;;3.73;88.18;101093.00;5074200;28;20029;-67
2020/12/23 00:52:08;;;;;;;18.80;3.57;;;;;;;3.70;88.32;101094.06;5073628;28;20032;-67
2020/12/23 00:54:33;;;;;;;12.80;2.73;;;;;;;3.66;88.08;101092.59;5056883;28;20395;-67
2020/12/23 00:56:59;;;;;;;27.50;4.65;;;;;;;3.62;88.06;101091.13;5073144;28;20110;-67
2020/12/23 00:59:24;;;;;;;21.67;4.03;;;;;;;3.59;88.23;101086.06;5074314;28;20416;-67
2020/12/23 01:01:56;;;;;;;11.90;4.63;;;;;;;3.56;88.39;101092.41;5073394;28;20347;-67
2020/12/23 01:04:21;;;;;;;21.70;3.35;;;;;;;3.50;88.28;101086.72;5073957;28;20036;-67
2020/12/23 01:06:46;;;;;;;16.33;2.87;;;;;;;3.47;88.36;101089.59;5072873;28;20343;-67
2020/12/23 01:09:11;;;;;;;17.23;4.40;;;;;;;3.45;88.62;101091.50;5074056;28;20038;-67
2020/12/23 01:11:37;;;;;;;23.00;3.43;;;;;;;3.42;88.76;101099.59;5073994;28;20450;-67
2020/12/23 01:14:03;;;;;;;8.90;2.85;;;;;;;3.30;88.50;101099.53;5074054;28;20048;-67
2020/12/23 01:16:28;;;;;;;18.40;4.80;;;;;;;3.21;88.55;101092.25;5073709;28;20025;-67
2020/12/23 01:18:53;;;;;;;11.80;2.63;;;;;;;3.08;88.25;101112.50;5072894;28;20068;-67
2020/12/23 01:21:19;;;;;;;11.37;3.00;;;;;;;3.02;88.60;101105.88;5073959;28;20074;-67
2020/12/23 01:23:44;;;;;;;14.57;4.43;;;;;;;2.95;88.71;101112.50;5073064;28;20044;-67
2020/12/23 01:26:10;;;;;;;15.20;3.27;;;;;;;2.90;89.05;101111.97;5072246;28;20051;-67
2020/12/23 01:28:36;;;;;;;12.73;2.40;;;;;;;2.78;88.97;101113.63;5073845;28;20032;-67
2020/12/23 01:31:03;;;;;;;17.23;3.70;;;;;;;2.68;89.24;101110.78;5072671;28;20071;-67
2020/12/23 01:33:28;;;;;;;17.00;4.25;;;;;;;2.63;89.67;101112.88;5073611;28;20373;-67
2020/12/23 01:35:54;;;;;;;14.87;3.73;;;;;;;2.60;89.92;101107.81;5073380;28;20123;-67
2020/12/23 01:38:19;;;;;;;13.53;3.13;;;;;;;2.60;90.27;101107.81;5056094;28;20119;-66
2020/12/23 01:40:44;;;;;;;14.17;3.10;;;;;;;2.57;90.40;101108.00;5073515;28;20063;-67
2020/12/23 01:43:10;;;;;;;21.83;4.90;;;;;;;2.51;90.45;101106.63;5073540;28;20060;-67
2020/12/23 01:45:36;;;;;;;17.67;2.97;;;;;;;2.47;90.65;101105.13;5073321;28;20051;-67
2020/12/23 01:48:12;;;;;;;12.13;3.17;;;;;;;2.40;90.35;101111.75;5055695;28;20069;-67
2020/12/23 01:50:38;;;;;;;16.17;3.72;;;;;;;2.38;90.58;101097.84;5072355;28;20519;-67
2020/12/23 01:53:03;;;;;;;19.67;3.10;;;;;;;2.37;90.79;101106.69;5073435;28;20028;-67
2020/12/23 01:55:28;;;;;;;23.30;5.10;;;;;;;2.38;90.75;101107.53;5072025;28;20465;-67
2020/12/23 01:57:55;;;;;;;22.80;3.70;;;;;;;2.37;90.86;101116.41;5071790;28;20135;-67
2020/12/23 02:00:20;;;;;;;21.77;4.38;;;;;;;2.36;91.03;101106.78;5073344;28;20105;-67
2020/12/23 02:02:48;;;;;;;17.00;3.17;;;;;;;2.37;91.09;101098.78;5072950;28;20611;-67
2020/12/23 02:05:13;;;;;;;13.65;3.40;;;;;;;2.32;91.17;101099.09;5072112;28;20032;-68
2020/12/23 02:07:39;;;;;;;15.43;4.07;;;;;;;2.21;91.04;101103.38;5071649;28;20102;-67
2020/12/23 02:10:07;;;;;;;18.58;4.65;;;;;;;2.25;91.40;101103.06;5072064;28;20056;-67
2020/12/23 02:12:32;;;;;;;25.15;3.35;;;;;;;2.33;91.73;101097.28;5072773;28;20094;-67
2020/12/23 02:15:08;;;;;;;21.92;4.10;;;;;;;2.28;91.54;101099.41;5072002;28;20044;-67
2020/12/23 02:17:33;;;;;;;17.60;3.67;;;;;;;2.37;92.09;101090.06;5071699;28;20032;-67
2020/12/23 02:19:59;;;;;;;19.73;3.47;;;;;;;2.35;91.76;101092.78;5071945;28;20044;-67
2020/12/23 02:22:31;;;;;;;21.77;3.80;;;;;;;2.20;91.35;101099.91;5071762;28;20032;-67
2020/12/23 02:24:56;;;;;;;17.42;3.40;;;;;;;2.13;91.35;101103.00;5054901;28;20832;-67
2020/12/23 02:27:23;;;;;;;16.30;5.22;;;;;;;2.28;92.18;101102.88;5072447;28;20036;-67
2020/12/23 02:29:51;;;;;;;18.50;3.05;;;;;;;2.42;91.90;101104.59;5054827;28;20041;-67
2020/12/23 02:32:17;;;;;;;27.17;6.10;;;;;;;2.25;91.45;101108.34;5071690;28;20040;-67
2020/12/23 02:34:43;;;;;;;11.85;3.65;;;;;;;2.05;90.98;101104.34;5072498;28;20032;-67
2020/12/23 02:37:09;;;;;;;25.95;4.07;;;;;;;1.84;90.92;101100.47;5071325;28;20097;-67
2020/12/23 02:39:38;;;;;;;18.45;4.47;;;;;;;1.80;91.37;101098.97;5071495;28;20072;-68
2020/12/23 02:42:05;;;;;;;16.73;3.13;;;;;;;1.86;91.59;101109.97;5071331;28;20040;-67
2020/12/23 02:44:31;;;;;;;26.83;4.72;;;;;;;1.98;91.86;101105.69;5071268;28;20070;-67
2020/12/23 02:46:59;;;;;;;20.58;3.45;;;;;;;2.04;91.80;101102.69;5071012;28;20040;-67
2020/12/23 02:49:25;;;;;;;20.63;4.03;;;;;;;2.04;91.87;101102.69;5072016;28;20040;-67
2020/12/23 02:51:51;;;;;;;28.10;5.35;;;;;;;2.07;92.26;101099.84;5054699;28;20492;-67
2020/12/23 02:54:17;;;;;;;;;;;;;;;2.10;92.13;101098.78;5072214;28;20040;-67
2020/12/23 02:56:42;;;;;;;18.00;3.00;;;;;;;1.99;91.90;101090.72;5054151;28;20325;-67
2020/12/23 02:59:08;;;;;;;20.77;3.93;;;;;;;1.89;91.47;101090.47;5071959;28;20044;-67
2020/12/23 03:01:34;;;;;;;18.50;3.57;;;;;;;1.69;91.29;101095.22;5054533;28;20123;-67
2020/12/23 03:03:59;;;;;;;;;;;;;;;1.62;91.47;101093.94;5072157;28;20040;-67
2020/12/23 03:06:24;;;;;;;;;;;;;;;1.56;91.62;101089.03;5071497;28;19935;-67
2020/12/23 03:08:50;;;;;;;9.43;3.10;;;;;;;1.46;91.61;101080.88;5070519;28;19923;-67
2020/12/23 03:11:15;;;;;;;15.47;3.03;;;;;;;1.38;91.62;101074.41;5071664;28;20057;-67
2020/12/23 03:13:40;;;;;;;10.30;3.20;;;;;;;1.33;91.50;101081.72;5071612;28;20036;-67
2020/12/23 03:16:06;;;;;;;10.63;3.27;;;;;;;1.21;91.43;101072.81;5070560;28;20097;-67
2020/12/23 03:18:31;;;;;;;24.50;3.90;;;;;;;1.37;91.76;101077.97;5070764;28;20105;-67
2020/12/23 03:20:56;;;;;;;13.87;4.17;;;;;;;1.39;91.94;101076.09;5071712;28;20111;-67
2020/12/23 03:23:22;;;;;;;14.43;3.97;;;;;;;1.50;92.48;101088.56;5070696;28;20443;-67
2020/12/23 03:25:47;;;;;;;11.13;3.53;;;;;;;1.53;92.29;101089.25;5070312;28;20036;-67
2020/12/23 03:28:12;;;;;;;13.27;3.73;;;;;;;1.50;92.32;101083.31;5070510;28;20041;-67
2020/12/23 03:30:38;;;;;;;29.03;4.70;;;;;;;1.36;91.96;101085.03;5070650;28;20033;-67
2020/12/23 03:33:03;;;;;;;14.07;3.23;;;;;;;1.17;91.68;101077.44;5070584;28;20105;-67
2020/12/23 03:35:28;;;;;;;7.77;3.53;;;;;;;1.05;91.64;101079.03;5071361;28;20036;-67
2020/12/23 03:37:53;;;;;;;17.33;4.00;;;;;;;1.02;91.79;101075.72;5069997;28;20043;-67
2020/12/23 03:40:19;;;;;;;16.57;5.47;;;;;;;1.10;92.35;101075.25;5071462;28;20036;-67
2020/12/23 03:42:44;;;;;;;24.00;6.33;;;;;;;1.12;92.40;101079.47;5053639;28;20059;-67
2020/12/23 03:45:09;;;;;;;21.03;5.00;;;;;;;1.11;92.39;101066.44;5071399;28;20079;-67
2020/12/23 03:47:35;;;;;;;31.50;5.07;;;;;;;1.08;92.32;101075.38;5071019;28;20043;-67
2020/12/23 03:50:00;;;;;;;13.87;3.97;;;;;;;1.02;92.22;101071.31;5071097;28;20054;-67
2020/12/23 03:52:25;;;;;;;11.97;3.27;;;;;;;0.90;91.86;101072.06;5070273;28;20123;-67
2020/12/23 03:54:51;;;;;;;24.60;5.10;;;;;;;0.83;92.12;101063.69;5070172;28;20044;-68
2020/12/23 03:57:16;;;;;;;14.13;3.80;;;;;;;0.81;91.99;101069.97;5069838;28;20046;-67
2020/12/23 03:59:42;;;;;;;17.97;5.30;;;;;;;0.78;92.04;101073.63;5071100;28;20115;-67
2020/12/23 04:02:07;;;;;;;16.57;4.00;;;;;;;0.71;91.96;101074.94;5070224;28;20032;-67
2020/12/23 04:04:32;;;;;;;16.67;4.37;;;;;;;0.61;92.00;101068.53;5070952;28;20040;-67
2020/12/23 04:06:57;;;;;;;32.10;5.90;;;;;;;0.56;92.14;101081.09;5069935;28;20032;-67
2020/12/23 04:09:23;;;;;;;15.27;5.40;;;;;;;0.51;92.61;101083.13;5070812;28;20078;-67
2020/12/23 04:11:48;;;;;;;25.43;7.63;;;;;;;0.60;92.85;101080.81;5070187;28;20382;-67
2020/12/23 04:14:13;;;;;;;30.30;8.57;;;;;;;0.63;93.07;101071.91;5069913;28;20405;-67
2020/12/23 04:16:39;;;;;;;24.73;7.83;;;;;;;0.72;93.37;101062.63;5070757;28;20453;-67
2020/12/23 04:19:04;;;;;;;30.17;7.63;;;;;;;0.70;93.10;101077.66;5072461;28;20040;-67
2020/12/23 04:21:29;;;;;;;29.00;8.93;;;;;;;0.82;93.29;101069.88;5075001;28;20032;-67
2020/12/23 04:23:55;;;;;;;23.70;7.57;;;;;;;0.71;92.97;101058.34;5075003;28;20127;-68
2020/12/23 04:26:20;;;;;;;20.37;6.33;;;;;;;0.59;92.95;101071.25;5074476;28;20189;-67
2020/12/23 04:28:45;;;;;;;18.83;5.70;;;;;;;0.49;92.77;101075.38;5074982;28;20131;-67
2020/12/23 04:31:11;;;;;;;20.43;6.33;;;;;;;0.45;92.78;101070.38;5074727;28;20094;-67
2020/12/23 04:33:36;;;;;;;14.47;5.57;;;;;;;0.39;92.74;101075.03;5074744;28;20126;-67
2020/12/23 04:36:01;;;;;;;23.23;7.83;;;;;;;0.41;93.47;101073.16;5074367;28;20032;-67
2020/12/23 04:38:27;;;;;;;35.93;9.57;;;;;;;0.63;93.63;101080.66;5074829;28;20370;-67
2020/12/23 04:40:52;;;;;;;28.93;8.87;;;;;;;0.64;93.63;101084.13;5074509;28;20358;-67
2020/12/23 04:43:19;;;;;;;35.80;11.30;;;;;;;0.67;93.63;101088.34;5074583;28;20032;-67
2020/12/23 04:45:45;;;;;;;22.88;9.38;;;;;;;0.66;93.69;101087.50;5073346;28;20457;-67
2020/12/23 04:48:12;;;;;;;24.10;8.60;;;;;;;0.59;93.39;101087.03;5074531;28;20045;-67
2020/12/23 04:50:42;;;;;;;26.30;8.55;;;;;;;0.44;93.10;101089.69;5074375;28;20084;-67
2020/12/23 04:53:08;;;;;;;33.15;10.68;;;;;;;0.43;93.36;101085.38;5074451;28;20361;-68
2020/12/23 04:55:33;;;;;;;24.20;6.73;;;;;;;0.38;92.90;101077.75;5073163;28;20120;-67
2020/12/23 04:57:59;;;;;;;31.10;11.40;;;;;;;0.40;93.70;101082.00;5074271;28;20127;-67
2020/12/23 05:00:25;;;;;;;35.63;10.65;;;;;;;0.44;93.52;101087.91;5056746;28;20032;-68
2020/12/23 05:02:51;;;;;;;33.85;8.32;;;;;;;0.41;93.33;101093.34;5073408;28;20037;-68
2020/12/23 05:05:17;;;;;;;18.60;7.03;;;;;;;0.35;93.28;101093.69;5074316;28;20032;-67
2020/12/23 05:07:43;;;;;;;33.00;9.20;;;;;;;0.26;93.19;101105.59;5073944;28;20296;-68
2020/12/23 05:10:08;;;;;;;13.75;5.80;;;;;;;0.16;92.92;101107.03;5073079;28;20032;-68
2020/12/23 05:12:33;;;;;;;11.00;5.50;;;;;;;-0.01;92.79;101107.97;5073253;28;20367;-68
2020/12/23 05:15:06;;;;;;;22.60;9.13;;;;;;;-0.07;92.83;101114.41;5074151;28;20469;-68
2020/12/23 05:17:31;;;;;;;30.35;9.93;;;;;;;-0.07;92.91;101114.41;5073750;28;20093;-68
2020/12/23 05:19:57;;;;;;;22.87;9.17;;;;;;;-0.01;93.17;101119.31;5073069;28;20396;-68
2020/12/23 05:22:22;;;;;;;28.17;9.53;;;;;;;0.08;93.44;101114.50;5074023;28;20056;-68
2020/12/23 05:24:52;;;;;;;28.23;10.33;;;;;;;0.13;93.35;101109.81;5072853;28;20461;-68
2020/12/23 05:27:17;;;;;;;37.55;12.68;;;;;;;0.17;93.51;101106.09;5073990;28;20032;-68
2020/12/23 05:29:47;;;;;;;18.20;8.27;;;;;;;0.11;92.84;101104.66;5072276;28;20738;-68
2020/12/23 05:32:12;;;;;;;22.48;8.13;;;;;;;0.02;92.91;101102.53;5072794;28;20041;-68
2020/12/23 05:34:38;;;;;;;36.57;10.20;;;;;;;0.05;93.14;101106.78;5072765;28;20032;-68
2020/12/23 05:37:03;;;;;;;35.50;11.17;;;;;;;0.22;93.50;101106.69;5073246;28;20036;-68
2020/12/23 05:39:32;;;;;;;43.45;13.45;;;;;;;0.37;93.77;101097.91;5072620;28;20036;-68
2020/12/23 05:41:59;;;;;;;25.48;9.20;;;;;;;0.33;93.40;101101.66;5073631;28;20032;-68
2020/12/23 05:44:24;;;;;;;28.05;10.18;;;;;;;0.28;93.38;101103.72;5072713;28;20044;-68
2020/12/23 05:46:51;;;;;;;32.83;12.60;;;;;;;0.36;93.58;101106.75;5073283;28;20477;-68
2020/12/23 05:49:17;;;;;;;36.60;12.82;;;;;;;0.40;93.56;101110.88;5072498;28;20048;-68
2020/12/23 05:51:44;;;;;;;31.90;10.02;;;;;;;0.40;93.32;101115.31;5073275;28;20043;-68
2020/12/23 05:54:14;;;;;;;22.98;9.15;;;;;;;0.35;93.16;101105.06;5073292;28;20036;-68
2020/12/23 05:56:42;;;;;;;24.75;8.93;;;;;;;0.40;93.37;101112.69;5073265;28;20140;-68
2020/12/23 05:59:07;;;;;;;24.70;9.00;;;;;;;0.35;93.18;101114.69;5073133;28;20424;-68
2020/12/23 06:01:35;;;;;;;25.92;8.60;;;;;;;0.34;93.03;101108.59;5073298;28;20039;-68
2020/12/23 06:04:05;;;;;;;17.73;7.40;;;;;;;0.35;93.10;101110.31;5072004;28;20089;-68
2020/12/23 06:06:32;;;;;;;29.83;10.18;;;;;;;0.30;93.00;101112.31;5072771;28;20043;-69
2020/12/23 06:09:04;;;;;;;20.65;9.50;;;;;;;0.30;92.73;101114.97;5073073;28;20041;-68
2020/12/23 06:11:35;;;;;;;19.60;8.68;;;;;;;0.30;92.85;101114.97;5073015;28;20406;-68
2020/12/23 06:14:25;;;;;;;16.92;7.78;;;;;;;0.27;92.95;101119.56;5072009;28;20104;-68
2020/12/23 06:17:04;;;;;;;31.23;10.98;;;;;;;0.34;92.98;101127.00;5071662;28;20041;-68
2020/12/23 06:19:36;;;;;;;31.65;11.85;;;;;;;0.37;93.21;101129.44;5072854;28;20377;-68
2020/12/23 06:22:06;;;;;;;32.15;14.07;;;;;;;0.50;93.50;101111.19;5072891;28;20040;-68
2020/12/23 06:24:32;;;;;;;36.40;14.20;;;;;;;0.54;93.47;101114.47;5055012;28;20115;-69
2020/12/23 06:27:01;;;;;;;45.17;16.85;;;;;;;0.49;93.32;101127.03;5072451;28;20498;-68
2020/12/23 06:29:29;;;;;;;28.92;13.30;;;;;;;0.49;93.25;101127.03;5069986;28;20182;-68
2020/12/23 06:32:21;;;;;;;34.10;14.52;;;;;;;0.53;93.35;101131.19;5070827;28;20387;-68
2020/12/23 06:35:03;;;;;;;32.63;11.82;;;;;;;0.45;92.92;101130.81;5069763;28;20384;-68
2020/12/23 06:37:35;;;;;;;28.77;11.27;;;;;;;0.42;93.21;101126.53;5070603;28;20032;-68
2020/12/23 06:40:11;;;;;;;33.80;12.50;;;;;;;0.45;93.35;101136.06;5069693;28;20040;-68
2020/12/23 06:42:44;;;;;;;;;;;;;;;0.59;93.65;101136.09;5070554;28;20412;-68
2020/12/23 06:45:10;;;;;;;37.80;15.80;;;;;;;0.61;93.69;101129.81;5072404;28;20367;-68
2020/12/23 06:47:37;;;;;;;45.15;17.55;;;;;;;0.66;93.71;101124.31;5071943;28;20408;-68
2020/12/23 06:50:11;;;;;;;36.75;16.92;;;;;;;0.72;93.69;101128.34;5071094;28;20048;-68
2020/12/23 06:52:42;;;;;;;58.80;18.83;;;;;;;0.71;93.62;101121.41;5054659;28;20047;-68
2020/12/23 06:55:12;;;;;;;43.63;18.98;;;;;;;0.69;93.60;101124.13;5054552;28;20396;-68
2020/12/23 06:57:37;;;;;;;47.80;18.80;;;;;;;0.83;93.97;101126.78;5054354;28;20036;-68
2020/12/23 07:00:02;;;;;;;55.83;21.13;;;;;;;0.88;94.02;101123.88;5071097;28;20424;-68
2020/12/23 07:02:28;;;;;;;43.77;20.37;;;;;;;0.87;93.81;101123.94;5071141;28;20032;-68
2020/12/23 07:04:56;;;;;;;54.77;19.73;;;;;;;0.83;93.81;101132.03;5070757;28;20070;-69
2020/12/23 07:07:36;;;;;;;28.70;15.32;;;;;;;0.71;93.58;101127.50;5070739;28;20047;-68
2020/12/23 07:10:14;;;;;;;47.85;19.15;;;;;;;0.60;93.45;101116.75;5071786;28;20044;-68
2020/12/23 07:12:52;;;;;;;38.50;15.80;;;;;;;0.45;93.00;101104.53;5071910;28;20468;-68
2020/12/23 07:15:24;;;;;;;37.55;15.10;;;;;;;0.19;92.83;101099.00;5071622;28;20045;-68
2020/12/23 07:17:51;;;;;;;43.97;18.33;;;;;;;0.11;92.84;101094.16;5071505;28;20055;-68
2020/12/23 07:20:20;;;;;;;52.40;19.92;;;;;;;0.23;93.48;101112.78;5070801;28;20025;-68
2020/12/23 07:22:51;;;;;;;41.95;19.83;;;;;;;0.35;93.70;101101.56;5070834;28;20361;-69
2020/12/23 07:25:27;;;;;;;42.53;18.05;;;;;;;0.36;93.60;101095.38;5070613;28;20174;-68
2020/12/23 07:27:57;;;;;;;53.10;17.02;;;;;;;0.29;93.42;101094.88;5070562;28;20099;-68
2020/12/23 07:30:23;;;;;;;43.85;17.98;;;;;;;0.13;93.39;101104.56;5053761;28;20408;-68
2020/12/23 07:33:04;;;;;;;57.35;21.60;;;;;;;0.10;93.63;101089.00;5071486;28;20139;-68
2020/12/23 07:35:29;;;;;;;33.10;15.57;;;;;;;0.05;93.25;101101.53;5053646;28;20464;-69
2020/12/23 07:37:59;;;;;;;43.77;16.63;;;;;;;0.16;93.65;101099.13;5071311;28;20040;-68
2020/12/23 07:40:26;;;;;;;39.78;17.00;;;;;;;0.04;93.23;101108.56;5071235;28;20036;-68
2020/12/23 07:42:52;;;;;;;35.45;16.27;;;;;;;-0.01;93.38;101114.06;5070532;28;20069;-68
2020/12/23 07:45:19;;;;;;;36.63;17.45;;;;;;;-0.05;93.34;101119.56;5053683;28;20463;-68
2020/12/23 07:47:52;;;;;;;37.70;15.27;;;;;;;-0.02;93.62;101129.91;5071071;28;20075;-68
2020/12/23 07:50:17;;;;;;;46.33;19.92;;;;;;;-0.01;93.61;101135.06;5070287;28;20047;-68
2020/12/23 07:52:43;;;;;;;45.67;18.77;;;;;;;-0.01;93.52;101132.44;5070998;28;20548;-68
2020/12/23 07:55:15;;;;;;;43.43;20.63;;;;;;;-0.01;93.67;101135.06;5070321;28;20480;-68
2020/12/23 07:57:41;;;;;;;45.63;19.70;;;;;;;0.11;93.78;101122.19;5053326;28;20028;-68
2020/12/23 08:00:12;;;;;;;45.00;18.85;;;;;;;0.16;93.79;101130.66;5070288;28;20055;-68
2020/12/23 08:02:37;;;;;;;44.97;19.92;;;;;;;0.23;93.93;101125.91;5071223;28;20090;-68
2020/12/23 08:05:05;;;;;;;42.88;19.90;;;;;;;0.17;93.59;101117.44;5070048;28;20060;-68
2020/12/23 08:07:31;;;;;;;44.45;21.33;;;;;;;0.14;93.74;101122.88;5069829;28;20105;-68
2020/12/23 08:09:56;;;;;;;51.67;21.27;;;;;;;0.12;93.39;101126.53;5070070;28;20068;-68
2020/12/23 08:12:22;;;;;;;47.90;20.13;;;;;;;0.01;93.90;101128.91;5071107;28;20096;-68
2020/12/23 08:14:48;;;;;;;39.03;18.88;;;;;;;0.04;93.74;101120.84;5070104;28;20043;-68
2020/12/23 08:17:23;;;;;;;44.42;19.30;;;;;;;0.03;93.72;101106.88;5069906;28;20044;-68
2020/12/23 08:20:13;;;;;;;42.13;20.00;;;;;;;0.09;93.66;101109.13;5070007;28;20373;-68
2020/12/23 08:22:41;;;;;;;29.45;15.02;;;;;;;0.15;93.72;101113.22;5070140;28;20048;-68
2020/12/23 08:25:15;;;;;;;31.60;16.50;;;;;;;0.17;93.49;101111.34;5070920;28;20393;-68
2020/12/23 08:27:46;;;;;;;36.50;16.80;;;;;;;0.17;93.39;101111.34;5070644;28;20037;-68
2020/12/23 08:30:18;;;;;;;30.45;14.38;;;;;;;0.19;93.27;101110.34;5070667;28;20079;-68
2020/12/23 08:33:06;;;;;;;24.95;13.50;;;;;;;0.21;93.31;101123.34;5069868;28;20044;-68
2020/12/23 08:35:36;;;;;;;37.60;16.27;;;;;;;0.20;93.12;101116.44;5070722;28;20062;-68
2020/12/23 08:38:03;;;;;;;31.52;15.82;;;;;;;0.21;93.05;101110.22;5069951;28;20481;-68
2020/12/23 08:40:28;;;;;;;34.42;15.98;;;;;;;0.22;92.85;101114.56;5069757;28;20036;-68
2020/12/23 08:43:00;;;;;;;29.42;16.50;;;;;;;0.23;92.66;101110.16;5070870;28;20055;-68
2020/12/23 08:45:29;;;;;;;23.67;12.73;;;;;;;0.34;92.62;101100.72;5070696;28;20036;-68
2020/12/23 08:47:56;;;;;;;24.45;12.60;;;;;;;0.39;92.52;101105.72;5070621;28;20119;-68
2020/12/23 08:50:24;;;;;;;24.95;13.73;;;;;;;0.40;92.42;101108.25;5070683;28;20040;-68
2020/12/23 08:52:51;;;;;;;25.85;14.32;;;;;;;0.52;92.33;101097.97;5069839;28;20024;-68
2020/12/23 08:55:24;;;;;;;26.90;12.77;;;;;;;0.59;92.28;101101.94;5069556;28;20032;-68
2020/12/23 08:57:51;;;;;;;24.52;13.85;;;;;;;0.66;92.09;101105.91;5069522;28;20150;-68
2020/12/23 09:00:21;;;;;;;22.20;12.57;;;;;;;0.76;92.07;101106.19;5070689;28;20364;-68
2020/12/23 09:02:48;;;;;;;23.88;13.82;;;;;;;0.82;91.67;101104.06;5070681;28;20048;-68
2020/12/23 09:05:21;;;;;;;27.10;14.20;;;;;;;0.86;91.51;101109.13;5071414;28;20036;-68
2020/12/23 09:07:46;;;;;;;19.95;11.40;;;;;;;0.96;91.78;101105.88;5072857;28;20032;-68
2020/12/23 09:10:12;;;;;;;22.77;13.63;;;;;;;1.09;91.54;101100.72;5073191;28;20082;-68
2020/12/23 09:12:37;;;;;;;25.23;13.52;;;;;;;1.07;91.05;101105.22;5074118;28;20076;-68
2020/12/23 09:15:12;;;;;;;18.40;11.90;;;;;;;1.13;90.86;101089.06;5074143;28;20061;-68
2020/12/23 09:17:37;;;;;;;20.17;11.90;;;;;;;1.26;90.73;101089.16;5056150;28;20032;-68
2020/12/23 09:20:04;;;;;;;21.57;12.00;;;;;;;1.35;90.41;101085.97;5073007;28;20590;-68
2020/12/23 09:22:37;;;;;;;23.55;13.57;;;;;;;1.40;90.22;101081.25;5056345;28;20032;-68
2020/12/23 09:25:21;;;;;;;21.48;13.32;;;;;;;1.46;89.98;101077.41;5073093;28;20424;-68
2020/12/23 09:27:51;;;;;;;24.83;13.48;;;;;;;1.48;89.76;101072.91;5072682;28;20039;-68
2020/12/23 09:30:33;;;;;;;21.42;14.18;;;;;;;1.55;89.41;101076.84;5073812;28;20126;-68
2020/12/23 09:32:58;;;;;;;18.33;11.88;;;;;;;1.66;90.00;101066.47;5072881;28;20089;-68
2020/12/23 09:35:26;;;;;;;19.23;12.57;;;;;;;1.74;89.70;101065.16;5071272;28;20123;-68
2020/12/23 09:38:08;;;;;;;21.02;12.95;;;;;;;1.73;88.96;101068.72;5071210;28;20480;-68
2020/12/23 09:40:35;;;;;;;22.00;11.52;;;;;;;1.60;89.05;101073.91;5070923;28;20070;-68
2020/12/23 09:43:01;;;;;;;17.38;10.40;;;;;;;1.73;89.08;101061.66;5071862;28;20033;-68
2020/12/23 09:45:27;;;;;;;18.60;11.73;;;;;;;1.77;89.23;101057.03;5071785;28;20499;-68
2020/12/23 09:47:52;;;;;;;19.27;11.80;;;;;;;1.68;89.13;101063.72;5071263;28;20055;-68
2020/12/23 09:50:17;;;;;;;18.47;12.20;;;;;;;1.84;89.19;101060.97;5072083;28;20029;-68
2020/12/23 09:52:43;;;;;;;20.57;11.90;;;;;;;1.98;89.31;101065.34;5073490;28;20688;-68
2020/12/23 09:55:08;;;;;;;18.93;11.53;;;;;;;2.05;89.17;101059.56;5073465;28;20071;-68
2020/12/23 09:57:34;;;;;;;17.57;11.90;;;;;;;2.19;89.05;101056.03;5073110;28;20032;-68
2020/12/23 10:00:00;;;;;;;21.60;12.00;;;;;;;2.26;88.63;101059.97;5072332;28;20369;-68
2020/12/23 10:02:25;;;;;;;16.90;11.80;;;;;;;2.38;88.74;101049.56;5073265;28;20093;-68
2020/12/23 10:04:50;;;;;;;22.07;11.70;;;;;;;2.44;88.46;101047.38;5073233;28;20041;-68
2020/12/23 10:07:17;;;;;;;19.47;11.97;;;;;;;2.51;88.25;101051.28;5072031;28;20036;-68
2020/12/23 10:09:43;;;;;;;20.05;13.05;;;;;;;2.56;87.88;101047.50;5072980;28;20040;-68
2020/12/23 10:12:08;;;;;;;19.27;13.67;;;;;;;2.50;87.97;101041.66;5073138;28;20093;-68
2020/12/23 10:14:33;;;;;;;22.43;13.03;;;;;;;2.13;87.45;101034.53;5072893;28;20033;-68
2020/12/23 10:16:59;;;;;;;24.57;11.83;;;;;;;2.26;88.15;101032.78;5071747;28;20141;-68
2020/12/23 10:19:24;;;;;;;20.70;12.53;;;;;;;2.12;87.90;101041.59;5072976;28;20035;-68
2020/12/23 10:21:49;;;;;;;19.77;11.77;;;;;;;2.15;88.36;101040.53;5071960;28;20082;-68
2020/12/23 10:24:15;;;;;;;20.23;11.87;;;;;;;2.36;88.87;101030.38;5071958;28;20126;-68
2020/12/23 10:26:42;;;;;;;16.80;10.90;;;;;;;2.42;88.32;101022.91;5071666;28;20036;-68
2020/12/23 10:29:08;;;;;;;17.90;11.68;;;;;;;2.37;88.03;101027.66;5071691;28;20086;-68
2020/12/23 10:31:33;;;;;;;21.48;12.02;;;;;;;2.50;88.26;101023.22;5071698;28;20067;-68
2020/12/23 10:33:59;;;;;;;21.03;11.27;;;;;;;2.56;88.08;101021.13;5072485;28;20028;-68
2020/12/23 10:36:24;;;;;;;21.20;12.07;;;;;;;2.63;88.11;101017.97;5071195;28;20037;-68
2020/12/23 10:38:51;;;;;;;17.67;10.53;;;;;;;2.69;88.04;101019.34;5071904;28;20040;-69
2020/12/23 10:41:19;;;;;;;;;;;;;;;2.79;88.23;101014.28;5071757;28;20024;-68
2020/12/23 10:43:44;;;;;;;16.65;11.65;;;;;;;2.81;88.18;100999.19;5071779;28;20293;-68
2020/12/23 10:46:09;;;;;;;20.23;11.50;;;;;;;2.89;88.21;101003.00;5070432;28;20127;-68
2020/12/23 10:48:35;;;;;;;20.30;12.40;;;;;;;2.95;88.41;100993.81;5070657;28;20044;-68
2020/12/23 10:51:03;;;;;;;20.53;10.90;;;;;;;3.04;88.48;100992.31;5069528;28;20032;-68
2020/12/23 10:53:30;;;;;;;17.75;10.43;;;;;;;3.03;88.52;100982.72;5070667;28;20101;-68
2020/12/23 10:55:55;;;;;;;20.42;12.18;;;;;;;3.02;88.28;100975.75;5070083;28;20041;-68
2020/12/23 10:58:21;;;;;;;47.77;30.03;;;;;;;2.88;87.65;100974.94;5070447;28;20036;-68
2020/12/23 11:00:46;;;;;;;50.67;26.73;;;;;;;2.82;88.09;100958.69;5071895;28;20119;-68
2020/12/23 11:03:11;;;;;;;24.90;16.10;;;;;;;2.94;88.20;100963.09;5071136;28;20048;-68
2020/12/23 11:05:37;;;;;;;20.93;13.03;;;;;;;2.87;88.33;100954.78;5071889;28;20040;-68
2020/12/23 11:08:02;;;;;;;24.87;12.03;;;;;;;2.92;88.57;100954.47;5071107;28;20051;-68
2020/12/23 11:10:27;;;;;;;21.17;12.10;;;;;;;2.92;88.13;100959.72;5071718;28;20036;-68
2020/12/23 11:12:52;;;;;;;23.70;12.33;;;;;;;3.05;88.30;100979.03;5070612;28;20177;-68
2020/12/23 11:15:18;;;;;;;20.20;12.50;;;;;;;3.14;88.43;100982.81;5070983;28;20036;-68
2020/12/23 11:17:44;;;;;;;20.53;12.30;;;;;;;3.17;88.20;100979.94;5053907;28;20420;-68
2020/12/23 11:20:10;;;;;;;31.35;13.45;;;;;;;3.15;87.54;100966.03;5070760;28;20059;-68
2020/12/23 11:22:36;;;;;;;22.02;12.95;;;;;;;2.79;87.37;100962.41;5070729;28;20033;-68